Time;durP1;ratioP1;P1;durP2;ratioP2;P2;SDS_P1;SDS_P2;PMS_P1;PMS_P2;Temp;Humidity;BMP_temperature;BMP_pressure;BME280_temperature;BME280_humidity;BME280_pressure;Samples;Min_cycle;Max_cycle;Signal;HPM_P1;HPM_P2
2022/07/25 00:04:13;;;;;;;52.48;49.27;;;;;;;21.22;100.00;100893.13;1995729;71;30823;-77
2022/07/25 00:10:00;;;;;;;55.23;51.53;;;;;;;21.10;100.00;100886.03;2005171;71;31470;-76
2022/07/25 00:15:45;;;;;;;52.27;48.78;;;;;;;21.07;100.00;100883.34;1991883;71;30903;-76
2022/07/25 00:21:30;;;;;;;53.02;49.63;;;;;;;20.97;100.00;100884.40;2015779;71;31007;-77
2022/07/25 00:27:15;;;;;;;52.33;48.92;;;;;;;20.92;100.00;100860.08;2017193;71;30962;-76
2022/07/25 00:33:00;;;;;;;52.67;49.38;;;;;;;20.93;100.00;100856.64;2015450;71;30894;-77
2022/07/25 00:38:45;;;;;;;50.50;47.20;;;;;;;20.87;100.00;100878.66;2008267;71;31400;-77
2022/07/25 00:44:31;;;;;;;50.77;47.70;;;;;;;20.82;100.00;100877.48;2011816;71;30992;-77
2022/07/25 00:50:16;;;;;;;51.70;48.50;;;;;;;20.73;100.00;100857.84;2003310;71;30825;-76
2022/07/25 00:56:01;;;;;;;51.42;48.33;;;;;;;20.71;100.00;100862.20;2010364;71;31462;-75
2022/07/25 01:01:47;;;;;;;50.10;46.97;;;;;;;20.77;100.00;100848.91;2001347;71;30834;-76
2022/07/25 01:07:33;;;;;;;50.57;47.33;;;;;;;20.70;100.00;100842.20;2006090;71;30873;-75
2022/07/25 01:13:18;;;;;;;50.90;48.00;;;;;;;20.67;100.00;100836.66;2010118;71;31001;-75
2022/07/25 01:19:03;;;;;;;50.40;47.13;;;;;;;20.64;100.00;100832.31;2015379;71;30887;-75
2022/07/25 01:24:48;;;;;;;48.53;45.53;;;;;;;20.62;100.00;100843.16;2011797;70;31463;-77
2022/07/25 01:30:31;;;;;;;49.97;46.73;;;;;;;20.74;100.00;100853.85;2013646;71;30892;-75
2022/07/25 01:36:16;;;;;;;52.63;49.33;;;;;;;20.58;100.00;100843.63;1992247;70;30830;-77
2022/07/25 01:42:02;;;;;;;50.50;47.10;;;;;;;20.55;100.00;100834.44;2004635;71;30943;-76
2022/07/25 01:47:47;;;;;;;50.97;47.67;;;;;;;20.25;100.00;100834.63;2011891;71;30965;-77
2022/07/25 01:53:31;;;;;;;50.83;47.33;;;;;;;20.33;100.00;100839.36;2017204;71;30881;-79
2022/07/25 01:59:16;;;;;;;52.03;48.73;;;;;;;20.39;100.00;100840.79;2010189;71;31020;-76
2022/07/25 02:05:01;;;;;;;53.87;50.40;;;;;;;20.05;100.00;100837.53;2017450;71;33450;-76
2022/07/25 02:10:46;;;;;;;50.83;47.60;;;;;;;20.04;100.00;100832.47;2015431;71;30911;-76
2022/07/25 02:16:31;;;;;;;51.37;47.87;;;;;;;20.06;100.00;100825.91;2015231;71;31559;-77
2022/07/25 02:22:16;;;;;;;51.53;48.33;;;;;;;20.12;100.00;100815.20;2013286;71;30899;-76
2022/07/25 02:28:01;;;;;;;53.20;49.60;;;;;;;20.14;100.00;100819.34;2011333;71;31081;-77
2022/07/25 02:33:46;;;;;;;53.07;49.50;;;;;;;20.05;100.00;100807.34;2010153;71;30841;-76
2022/07/25 02:39:31;;;;;;;51.17;47.80;;;;;;;19.96;100.00;100810.25;2006656;71;30869;-75
2022/07/25 02:45:15;;;;;;;50.93;47.53;;;;;;;19.79;100.00;100813.27;2000833;71;30946;-75
2022/07/25 02:51:00;;;;;;;53.97;50.33;;;;;;;19.76;100.00;100825.25;1999314;71;30799;-76
2022/07/25 02:56:45;;;;;;;51.23;47.83;;;;;;;19.87;100.00;100822.22;2010044;71;30964;-76
2022/07/25 03:02:29;;;;;;;52.17;48.67;;;;;;;19.84;100.00;100825.73;2008162;71;30895;-75
2022/07/25 03:08:16;;;;;;;53.30;49.90;;;;;;;19.75;100.00;100816.55;2010351;71;30964;-75
2022/07/25 03:14:01;;;;;;;52.40;48.90;;;;;;;19.83;100.00;100816.21;2004526;71;30941;-76
2022/07/25 03:19:45;;;;;;;49.63;46.23;;;;;;;19.77;100.00;100811.37;2017157;71;30954;-76
2022/07/25 03:25:32;;;;;;;52.37;48.77;;;;;;;19.84;100.00;100810.23;1992066;71;30817;-77
2022/07/25 03:31:17;;;;;;;55.57;51.87;;;;;;;19.79;100.00;100806.80;2013812;71;33466;-76
2022/07/25 03:37:01;;;;;;;54.67;50.67;;;;;;;20.00;100.00;100790.64;2013954;71;30906;-76
2022/07/25 03:42:46;;;;;;;52.90;49.60;;;;;;;19.81;100.00;100786.16;1999356;71;30830;-76
2022/07/25 03:48:31;;;;;;;54.10;50.30;;;;;;;19.65;100.00;100780.34;2017328;71;30936;-76
2022/07/25 03:54:16;;;;;;;57.20;53.10;;;;;;;19.48;100.00;100788.39;2010372;71;31296;-78
2022/07/25 04:00:02;;;;;;;55.07;51.07;;;;;;;19.43;100.00;100793.41;1997558;71;30919;-78
2022/07/25 04:05:49;;;;;;;54.27;50.57;;;;;;;19.45;100.00;100792.48;2004641;71;30909;-77
2022/07/25 04:11:34;;;;;;;54.93;50.93;;;;;;;19.41;100.00;100803.59;2012215;71;31452;-77
2022/07/25 04:17:20;;;;;;;52.83;49.03;;;;;;;19.35;100.00;100792.87;2006516;71;30866;-76
2022/07/25 04:23:05;;;;;;;55.60;51.43;;;;;;;19.22;100.00;100791.17;2006304;71;30935;-77
2022/07/25 04:28:49;;;;;;;55.23;51.20;;;;;;;19.27;100.00;100786.16;2006819;71;30824;-76
2022/07/25 04:34:34;;;;;;;55.07;51.07;;;;;;;19.27;100.00;100784.75;2001298;71;30928;-77
2022/07/25 04:40:19;;;;;;;52.43;48.87;;;;;;;19.22;100.00;100796.80;1992036;71;30827;-77
2022/07/25 04:46:03;;;;;;;52.13;48.53;;;;;;;19.32;100.00;100790.75;2010453;71;31446;-77
2022/07/25 04:51:49;;;;;;;52.27;48.77;;;;;;;19.30;100.00;100780.41;2010316;71;30837;-78
2022/07/25 04:57:34;;;;;;;52.77;49.27;;;;;;;19.41;100.00;100776.01;2015377;71;30992;-76
2022/07/25 05:03:19;;;;;;;52.90;49.00;;;;;;;19.30;100.00;100768.56;1999571;71;30837;-77
2022/07/25 05:09:05;;;;;;;51.27;47.83;;;;;;;19.30;100.00;100779.00;2007206;70;31007;-77
2022/07/25 05:14:50;;;;;;;52.63;48.80;;;;;;;19.33;100.00;100774.93;2006869;71;31000;-77
2022/07/25 05:20:34;;;;;;;50.47;46.93;;;;;;;19.35;100.00;100790.88;2000890;71;30949;-77
2022/07/25 05:26:19;;;;;;;51.57;48.23;;;;;;;19.41;100.00;100780.23;2013802;71;30973;-76
2022/07/25 05:32:07;;;;;;;49.57;46.40;;;;;;;19.42;100.00;100774.84;2015831;71;30989;-78
2022/07/25 05:37:52;;;;;;;50.73;47.63;;;;;;;19.41;100.00;100790.92;2012198;71;30837;-78
2022/07/25 05:43:36;;;;;;;51.53;48.03;;;;;;;19.57;100.00;100786.89;2001443;70;30842;-76
2022/07/25 05:49:21;;;;;;;52.13;48.97;;;;;;;19.62;100.00;100785.84;2008063;71;33388;-78
2022/07/25 05:55:07;;;;;;;49.17;46.17;;;;;;;19.71;100.00;100779.54;2003264;71;33406;-79
2022/07/25 06:00:53;;;;;;;46.50;43.40;;;;;;;19.85;100.00;100785.69;1995750;71;30957;-78
2022/07/25 06:06:38;;;;;;;43.23;40.43;;;;;;;19.91;100.00;100783.69;2000673;71;31046;-77
2022/07/25 06:12:24;;;;;;;45.30;42.37;;;;;;;19.94;100.00;100792.85;2008493;71;31479;-78
2022/07/25 06:18:09;;;;;;;46.90;44.00;;;;;;;20.03;100.00;100803.20;2017192;71;31082;-78
2022/07/25 06:23:54;;;;;;;46.43;43.37;;;;;;;19.98;100.00;100807.09;2006732;71;30954;-79
2022/07/25 06:29:40;;;;;;;47.47;44.17;;;;;;;19.94;100.00;100811.76;2012082;71;31420;-78
2022/07/25 06:35:25;;;;;;;47.17;44.13;;;;;;;19.98;100.00;100816.35;1992147;71;30915;-77
2022/07/25 06:41:17;;;;;;;43.30;40.40;;;;;;;19.95;100.00;100815.65;1999098;71;30840;-82
2022/07/25 06:47:02;;;;;;;41.70;38.90;;;;;;;19.96;100.00;100813.66;1992397;71;30897;-78
2022/07/25 06:52:49;;;;;;;43.60;40.90;;;;;;;20.03;100.00;100821.53;1992171;71;30883;-78
2022/07/25 06:58:35;;;;;;;38.87;36.23;;;;;;;20.13;100.00;100817.69;2004121;71;30932;-78
2022/07/25 07:04:21;;;;;;;38.40;35.97;;;;;;;20.26;100.00;100828.39;2011933;71;30951;-78
2022/07/25 07:10:09;;;;;;;38.07;35.70;;;;;;;20.33;100.00;100831.48;2007037;71;33339;-79
2022/07/25 07:15:55;;;;;;;36.70;34.47;;;;;;;20.27;100.00;100827.23;2008362;71;30901;-79
2022/07/25 07:21:40;;;;;;;37.07;34.53;;;;;;;20.58;100.00;100819.02;2011929;71;30969;-79
2022/07/25 07:27:26;;;;;;;36.07;33.97;;;;;;;20.54;100.00;100833.60;1862943;70;31275;-78
2022/07/25 07:33:10;;;;;;;39.93;37.60;;;;;;;20.56;100.00;100837.50;2003073;71;30823;-78
2022/07/25 07:38:57;;;;;;;35.83;33.63;;;;;;;20.48;100.00;100838.44;2010051;71;30935;-78
2022/07/25 07:44:42;;;;;;;36.50;34.23;;;;;;;20.49;100.00;100833.04;2013832;71;30950;-78
2022/07/25 07:50:29;;;;;;;32.80;30.90;;;;;;;20.88;100.00;100830.29;2012103;71;31477;-78
2022/07/25 07:56:13;;;;;;;28.20;26.80;;;;;;;;;;2006835;71;30936;-77
2022/07/25 07:58:44;;;;;;;25.53;24.17;;;;;;;21.41;100.00;100828.31;1970184;72;24174;-78
2022/07/25 08:04:29;;;;;;;23.10;21.90;;;;;;;21.68;100.00;100827.50;2015084;71;30911;-73
2022/07/25 08:10:14;;;;;;;21.90;20.60;;;;;;;21.47;100.00;100835.95;2005766;71;31445;-74
2022/07/25 08:16:02;;;;;;;24.40;23.10;;;;;;;21.23;100.00;100847.55;2018621;71;30965;-73
2022/07/25 08:21:47;;;;;;;22.37;21.07;;;;;;;21.07;100.00;100852.27;2008086;71;30827;-74
2022/07/25 08:27:32;;;;;;;21.70;20.50;;;;;;;20.87;100.00;100858.90;2015312;71;30941;-74
2022/07/25 08:33:18;;;;;;;21.50;20.30;;;;;;;20.95;100.00;100862.77;2013255;71;31469;-72
2022/07/25 08:39:04;;;;;;;21.15;20.00;;;;;;;21.87;100.00;100852.84;2013094;71;30977;-73
2022/07/25 08:44:56;;;;;;;18.40;17.50;;;;;;;22.66;100.00;100857.42;2014772;71;30887;-73
2022/07/25 08:50:42;;;;;;;15.30;14.60;;;;;;;22.57;100.00;100866.69;2003903;71;30915;-75
2022/07/25 08:56:30;;;;;;;12.68;12.05;;;;;;;23.03;100.00;100857.34;2017004;71;30988;-74
2022/07/25 09:02:16;;;;;;;11.88;11.38;;;;;;;23.09;100.00;100862.13;2004438;71;31340;-74
2022/07/25 09:08:08;;;;;;;12.28;11.60;;;;;;;22.98;100.00;100870.36;2018738;71;30888;-73
2022/07/25 09:14:01;;;;;;;10.93;10.30;;;;;;;23.15;100.00;100876.22;1991471;71;30805;-74
2022/07/25 09:19:54;;;;;;;11.50;10.43;;;;;;;23.39;100.00;100868.90;2011215;71;30870;-76
2022/07/25 09:25:40;;;;;;;10.18;9.43;;;;;;;23.46;100.00;100869.66;2015283;70;31379;-74
2022/07/25 09:31:34;;;;;;;10.28;9.53;;;;;;;23.38;100.00;100872.09;1999113;71;31276;-79
2022/07/25 09:37:22;;;;;;;9.20;8.60;;;;;;;23.21;100.00;100876.17;2011954;71;30956;-79
2022/07/25 09:43:07;;;;;;;9.10;8.70;;;;;;;23.20;100.00;100881.61;2005781;71;31007;-78
2022/07/25 09:48:55;;;;;;;8.63;8.13;;;;;;;23.12;100.00;100888.30;2005877;71;31393;-76
2022/07/25 09:54:40;;;;;;;8.65;8.13;;;;;;;23.15;100.00;100897.48;2004659;71;30806;-73
2022/07/25 10:00:31;;;;;;;8.85;8.50;;;;;;;22.89;100.00;100898.69;1997098;70;30796;-75
2022/07/25 10:06:24;;;;;;;8.78;8.48;;;;;;;22.96;100.00;100903.09;2002956;70;30801;-76
2022/07/25 10:12:16;;;;;;;9.20;8.80;;;;;;;22.91;100.00;100899.13;1997196;71;30793;-74
2022/07/25 10:18:19;;;;;;;9.50;9.10;;;;;;;22.88;100.00;100908.37;2011137;71;30933;-75
2022/07/25 10:24:08;;;;;;;9.40;8.90;;;;;;;22.98;100.00;100923.38;2004585;71;31322;-75
2022/07/25 10:29:55;;;;;;;8.53;8.08;;;;;;;23.27;100.00;100920.65;2011417;71;31431;-74
2022/07/25 10:35:44;;;;;;;9.05;8.55;;;;;;;23.27;100.00;100920.65;2016897;71;31373;-75
2022/07/25 10:41:30;;;;;;;8.90;8.50;;;;;;;23.26;100.00;100929.74;2014971;71;30858;-75
2022/07/25 10:47:18;;;;;;;8.85;8.50;;;;;;;23.42;100.00;100936.19;2009630;71;30855;-74
2022/07/25 10:53:07;;;;;;;8.53;8.13;;;;;;;23.28;100.00;100954.27;2009694;71;30869;-74
2022/07/25 10:58:54;;;;;;;10.23;9.78;;;;;;;22.92;100.00;100968.77;2005767;71;30969;-75
2022/07/25 11:04:43;;;;;;;9.73;9.33;;;;;;;23.21;100.00;100977.38;2015114;71;31377;-75
2022/07/25 11:10:30;;;;;;;10.10;9.65;;;;;;;23.11;100.00;100984.42;2016804;71;30875;-75
2022/07/25 11:16:17;;;;;;;13.00;12.40;;;;;;;23.49;100.00;100995.12;2009621;71;30897;-76
2022/07/25 11:22:04;;;;;;;10.70;10.20;;;;;;;23.27;100.00;100990.09;2013359;71;31396;-74
2022/07/25 11:27:57;;;;;;;20.90;20.00;;;;;;;22.91;100.00;100979.86;1991576;71;30840;-77
2022/07/25 11:33:48;;;;;;;18.02;17.23;;;;;;;22.74;100.00;100985.88;2015254;71;31404;-76
2022/07/25 11:39:38;;;;;;;18.20;17.45;;;;;;;22.50;100.00;100988.25;2013018;71;31004;-75
2022/07/25 11:45:28;;;;;;;12.80;12.20;;;;;;;22.77;100.00;100974.64;2009897;71;31386;-77
2022/07/25 11:51:26;;;;;;;11.70;11.18;;;;;;;22.72;100.00;100976.33;2011572;71;31423;-76
2022/07/25 11:57:21;;;;;;;10.23;9.73;;;;;;;23.00;100.00;100973.42;2004252;71;30875;-77
2022/07/25 12:03:10;;;;;;;11.03;10.43;;;;;;;23.20;100.00;100975.13;2004402;71;30902;-78
2022/07/25 12:08:58;;;;;;;10.93;9.98;;;;;;;23.25;100.00;100979.11;2015223;71;31427;-78
2022/07/25 12:14:45;;;;;;;11.95;11.28;;;;;;;23.24;100.00;100972.37;2006517;71;31281;-77
2022/07/25 12:20:34;;;;;;;9.58;9.18;;;;;;;23.38;100.00;100971.31;2005782;71;30874;-76
2022/07/25 12:26:23;;;;;;;9.63;9.13;;;;;;;23.87;100.00;100962.56;2007728;71;30904;-79
2022/07/25 12:32:10;;;;;;;9.00;8.60;;;;;;;23.78;100.00;100969.64;2016703;71;30860;-77
2022/07/25 12:37:55;;;;;;;8.88;8.38;;;;;;;24.04;100.00;100961.30;2013143;71;30852;-79
2022/07/25 12:43:43;;;;;;;8.20;7.90;;;;;;;23.88;100.00;100966.20;2018824;71;30926;-78
2022/07/25 12:49:29;;;;;;;8.35;8.05;;;;;;;23.99;100.00;100967.27;2006456;71;31332;-76
2022/07/25 12:55:19;;;;;;;8.65;8.33;;;;;;;23.97;100.00;100965.38;1998575;71;30924;-76
2022/07/25 13:01:09;;;;;;;8.60;8.20;;;;;;;23.95;100.00;100971.45;2013453;71;31292;-77
2022/07/25 13:06:56;;;;;;;8.90;8.38;;;;;;;24.01;100.00;100969.11;1990852;71;31335;-77
2022/07/25 13:12:45;;;;;;;7.60;7.30;;;;;;;24.11;100.00;100967.11;2014839;71;30850;-75
2022/07/25 13:18:31;;;;;;;8.68;8.38;;;;;;;24.05;100.00;100972.25;2015122;71;30856;-77
2022/07/25 13:24:16;;;;;;;8.48;8.08;;;;;;;24.10;100.00;100975.39;1995239;71;30875;-77
2022/07/25 13:30:01;;;;;;;8.50;8.10;;;;;;;24.14;100.00;100985.39;2000628;71;30852;-76
2022/07/25 13:35:46;;;;;;;8.55;7.92;;;;;;;24.03;100.00;101001.62;2014848;71;30862;-76
2022/07/25 13:41:33;;;;;;;9.45;8.95;;;;;;;24.03;100.00;101000.20;2016582;71;30983;-75
2022/07/25 13:47:18;;;;;;;8.98;8.48;;;;;;;24.07;100.00;101005.95;2011385;71;30893;-75
2022/07/25 13:53:04;;;;;;;8.73;8.33;;;;;;;23.97;100.00;101015.87;2014946;71;30848;-75
2022/07/25 13:58:51;;;;;;;9.28;8.93;;;;;;;23.86;100.00;101027.59;2011311;71;30861;-78
2022/07/25 14:04:34;;;;;;;8.93;8.38;;;;;;;24.03;100.00;101023.50;1991486;71;30793;-75
2022/07/25 14:10:19;;;;;;;8.90;8.30;;;;;;;24.23;100.00;101035.11;2003912;71;30864;-75
2022/07/25 14:16:06;;;;;;;8.60;8.20;;;;;;;24.14;100.00;101032.23;1991564;71;30794;-76
2022/07/25 14:21:51;;;;;;;9.13;8.65;;;;;;;24.05;100.00;101040.36;2013754;71;31275;-75
2022/07/25 14:27:37;;;;;;;9.53;8.88;;;;;;;24.10;100.00;101042.69;2013128;71;30916;-75
2022/07/25 14:33:25;;;;;;;9.13;8.73;;;;;;;24.06;100.00;101048.28;2016574;71;30956;-75
2022/07/25 14:39:12;;;;;;;9.20;8.80;;;;;;;23.83;100.00;101045.95;2005500;71;30983;-75
2022/07/25 14:44:58;;;;;;;11.08;10.28;;;;;;;24.02;100.00;101046.80;2011926;71;33360;-74
2022/07/25 14:50:43;;;;;;;9.73;9.08;;;;;;;24.12;100.00;101046.81;2009447;71;31372;-75
2022/07/25 14:56:29;;;;;;;9.45;8.95;;;;;;;24.05;100.00;101050.89;2011626;71;30804;-74
2022/07/25 15:02:14;;;;;;;9.10;8.63;;;;;;;24.00;100.00;101052.00;2009282;71;31031;-75
2022/07/25 15:07:58;;;;;;;9.23;8.78;;;;;;;23.78;100.00;101064.67;1998658;71;31459;-74
2022/07/25 15:13:43;;;;;;;10.10;9.53;;;;;;;23.70;100.00;101062.86;2018504;71;30855;-74
2022/07/25 15:19:30;;;;;;;9.23;8.83;;;;;;;23.65;100.00;101066.81;2004091;70;30883;-76
2022/07/25 15:25:18;;;;;;;9.43;9.00;;;;;;;23.68;100.00;101073.74;2011263;71;30909;-74
2022/07/25 15:31:05;;;;;;;9.73;9.23;;;;;;;23.80;100.00;101067.36;2011211;71;31018;-75
2022/07/25 15:36:54;;;;;;;10.28;9.55;;;;;;;24.09;100.00;101068.83;1995533;71;31304;-76
2022/07/25 15:42:40;;;;;;;10.10;9.58;;;;;;;24.31;100.00;101075.23;2010218;71;31385;-75
2022/07/25 15:48:27;;;;;;;11.45;10.85;;;;;;;24.44;100.00;101071.05;2016838;71;31474;-75
2022/07/25 15:54:12;;;;;;;10.20;9.63;;;;;;;24.25;100.00;101073.90;2011456;71;31017;-75
2022/07/25 15:59:58;;;;;;;9.70;9.05;;;;;;;24.26;100.00;101080.41;2006276;71;30918;-74
2022/07/25 16:05:43;;;;;;;10.35;9.80;;;;;;;23.94;100.00;101086.73;2000653;71;30801;-74
2022/07/25 16:11:28;;;;;;;9.70;9.30;;;;;;;23.89;100.00;101096.95;2014818;71;30872;-75
2022/07/25 16:17:13;;;;;;;10.80;10.10;;;;;;;23.74;100.00;101093.55;2007924;71;30871;-75
2022/07/25 16:22:59;;;;;;;10.88;10.38;;;;;;;23.98;100.00;101096.15;2009542;71;30857;-75
2022/07/25 16:28:45;;;;;;;10.90;10.23;;;;;;;23.73;100.00;101110.34;2000781;71;31364;-75
2022/07/25 16:34:29;;;;;;;10.40;9.90;;;;;;;23.52;100.00;101115.72;2009728;71;30882;-76
2022/07/25 16:40:23;;;;;;;8.88;8.48;;;;;;;23.86;100.00;101122.63;2000373;71;31363;-76
2022/07/25 16:46:10;;;;;;;9.90;9.50;;;;;;;23.73;100.00;101128.19;2016988;71;30926;-76
2022/07/25 16:51:57;;;;;;;10.03;9.63;;;;;;;23.59;100.00;101135.73;2009470;71;30952;-75
2022/07/25 16:57:42;;;;;;;10.63;10.23;;;;;;;23.51;100.00;101133.91;1995471;71;31316;-75
2022/07/25 17:03:28;;;;;;;10.98;10.38;;;;;;;23.46;100.00;101146.95;2014912;71;31388;-70
2022/07/25 17:09:13;;;;;;;9.83;9.43;;;;;;;23.57;100.00;101142.98;1916931;74;31021;-70
2022/07/25 17:14:58;;;;;;;9.55;9.18;;;;;;;23.86;100.00;101151.60;2011851;71;31299;-70
2022/07/25 17:20:43;;;;;;;9.08;8.78;;;;;;;23.82;100.00;101166.30;2016432;71;30893;-71
2022/07/25 17:26:28;;;;;;;8.35;7.95;;;;;;;23.76;100.00;101179.92;2006263;71;30798;-69
2022/07/25 17:32:13;;;;;;;8.50;8.20;;;;;;;23.84;100.00;101190.86;2006312;71;30893;-72
2022/07/25 17:37:58;;;;;;;8.50;8.20;;;;;;;23.52;100.00;101203.63;2014846;71;30969;-69
2022/07/25 17:43:43;;;;;;;8.38;8.08;;;;;;;22.85;100.00;101205.12;2012061;71;30785;-71
2022/07/25 17:49:27;;;;;;;8.65;8.33;;;;;;;22.65;100.00;101209.16;2000317;71;31371;-72
2022/07/25 17:55:12;;;;;;;8.63;8.25;;;;;;;22.71;100.00;101211.19;2014779;71;30922;-71
2022/07/25 18:00:57;;;;;;;8.53;8.23;;;;;;;22.60;100.00;101216.48;1991698;71;30796;-70
2022/07/25 18:06:42;;;;;;;9.03;8.70;;;;;;;22.51;100.00;101222.86;2000828;71;30858;-71
2022/07/25 18:12:27;;;;;;;8.45;8.05;;;;;;;22.54;100.00;101225.59;2006427;71;31312;-72
2022/07/25 18:18:13;;;;;;;8.43;7.92;;;;;;;22.61;100.00;101223.80;2016760;71;30969;-72
2022/07/25 18:23:59;;;;;;;8.60;8.30;;;;;;;22.59;100.00;101233.22;1938316;70;31194;-69
2022/07/25 18:29:44;;;;;;;8.68;8.38;;;;;;;22.45;100.00;101237.63;1997190;70;31332;-71
2022/07/25 18:35:30;;;;;;;8.03;7.72;;;;;;;22.64;100.00;101238.64;1995145;71;30892;-70
2022/07/25 18:41:14;;;;;;;9.95;9.45;;;;;;;22.76;100.00;101252.02;2002604;71;30868;-70
2022/07/25 18:46:59;;;;;;;8.45;8.08;;;;;;;22.48;100.00;101260.39;2006356;71;31167;-70
2022/07/25 18:52:44;;;;;;;8.65;8.35;;;;;;;22.48;100.00;101263.81;2000861;71;30794;-71
2022/07/25 18:58:29;;;;;;;8.33;7.92;;;;;;;22.48;100.00;101267.47;2004140;71;31111;-73
2022/07/25 19:04:14;;;;;;;8.63;8.33;;;;;;;22.66;100.00;101277.95;2004407;71;30911;-73
2022/07/25 19:09:59;;;;;;;8.50;8.00;;;;;;;22.62;100.00;101292.59;1999031;71;30910;-73
2022/07/25 19:15:43;;;;;;;8.58;8.18;;;;;;;22.36;100.00;101300.63;2008284;71;30784;-74
2022/07/25 19:21:30;;;;;;;8.73;8.33;;;;;;;22.06;100.00;101309.92;2015081;71;30942;-73
2022/07/25 19:27:14;;;;;;;8.48;8.18;;;;;;;21.91;100.00;101318.45;2018368;71;30997;-75
2022/07/25 19:32:59;;;;;;;8.70;8.33;;;;;;;21.65;100.00;101330.67;2004238;71;30790;-74
2022/07/25 19:38:44;;;;;;;8.48;8.18;;;;;;;21.56;100.00;101341.23;2011089;70;31404;-74
2022/07/25 19:44:29;;;;;;;8.40;8.03;;;;;;;21.52;100.00;101345.93;2007553;71;31354;-73
2022/07/25 19:50:14;;;;;;;8.80;8.50;;;;;;;21.55;100.00;101369.25;2008279;71;31282;-73
2022/07/25 19:56:00;;;;;;;8.77;8.47;;;;;;;21.41;100.00;101363.89;2008135;71;31639;-73
2022/07/25 20:01:45;;;;;;;8.83;8.53;;;;;;;21.61;100.00;101389.88;2016980;71;33332;-75
2022/07/25 20:07:31;;;;;;;9.40;9.10;;;;;;;21.39;100.00;101416.30;2009738;71;30971;-75
2022/07/25 20:13:16;;;;;;;9.78;9.38;;;;;;;21.11;100.00;101432.91;2007761;71;31489;-74
2022/07/25 20:19:04;;;;;;;10.90;10.27;;;;;;;20.89;100.00;101438.27;2008420;71;30901;-76
2022/07/25 20:24:49;;;;;;;10.23;9.83;;;;;;;20.64;100.00;101458.41;2014811;71;30864;-74
2022/07/25 20:30:37;;;;;;;11.00;10.60;;;;;;;20.52;100.00;101470.16;2005709;71;30872;-73
2022/07/25 20:36:25;;;;;;;10.73;10.30;;;;;;;20.35;100.00;101483.16;2004244;71;33445;-74
2022/07/25 20:42:10;;;;;;;11.10;10.60;;;;;;;20.35;100.00;101492.20;2003970;71;31402;-76
2022/07/25 20:47:55;;;;;;;12.07;11.47;;;;;;;20.23;100.00;101493.45;2014863;71;30990;-77
2022/07/25 20:53:41;;;;;;;11.63;11.23;;;;;;;20.13;100.00;101490.97;2009578;71;30875;-77
2022/07/25 20:59:26;;;;;;;11.97;11.53;;;;;;;20.14;100.00;101499.11;1997098;70;30940;-78
2022/07/25 21:05:10;;;;;;;12.57;11.97;;;;;;;20.24;100.00;101502.13;2018666;71;31513;-76
2022/07/25 21:10:57;;;;;;;12.67;12.17;;;;;;;20.05;100.00;101507.33;2005970;71;31375;-77
2022/07/25 21:16:42;;;;;;;13.33;12.83;;;;;;;20.04;100.00;101522.00;2008040;71;31363;-77
2022/07/25 21:22:28;;;;;;;12.60;12.10;;;;;;;19.99;100.00;101527.23;2018607;71;33440;-76
2022/07/25 21:28:13;;;;;;;13.07;12.57;;;;;;;19.95;100.00;101529.05;2000988;71;33287;-78
2022/07/25 21:33:58;;;;;;;12.97;12.47;;;;;;;19.94;100.00;101535.02;2012013;71;30908;-76
2022/07/25 21:39:45;;;;;;;12.47;11.97;;;;;;;19.81;100.00;101537.45;2014990;71;30888;-78
2022/07/25 21:45:29;;;;;;;13.60;13.00;;;;;;;19.72;100.00;101547.88;2006487;71;31275;-79
2022/07/25 21:51:14;;;;;;;13.43;12.93;;;;;;;19.63;100.00;101553.51;2007772;71;31052;-79
2022/07/25 21:56:59;;;;;;;12.90;12.30;;;;;;;19.53;100.00;101560.28;2004459;71;30848;-80
2022/07/25 22:02:45;;;;;;;13.37;12.77;;;;;;;19.42;100.00;101572.16;1994916;70;30950;-79
2022/07/25 22:08:32;;;;;;;13.13;12.53;;;;;;;19.40;100.00;101573.05;2009596;71;30863;-78
2022/07/25 22:14:17;;;;;;;12.93;12.33;;;;;;;19.30;100.00;101586.86;2009560;71;31397;-79
2022/07/25 22:20:03;;;;;;;14.00;13.40;;;;;;;19.19;100.00;101596.77;2015129;71;31107;-78
2022/07/25 22:25:48;;;;;;;14.93;13.70;;;;;;;19.06;100.00;101601.92;2009841;71;31430;-78
2022/07/25 22:31:33;;;;;;;14.30;13.70;;;;;;;18.99;100.00;101601.57;2010233;71;31476;-79
2022/07/25 22:37:18;;;;;;;15.83;15.13;;;;;;;18.98;100.00;101610.59;2013683;71;30999;-77
2022/07/25 22:43:03;;;;;;;15.80;15.10;;;;;;;18.92;100.00;101602.59;2009736;71;31033;-80
2022/07/25 22:48:48;;;;;;;16.40;15.70;;;;;;;18.87;100.00;101617.63;1997429;71;31352;-79
2022/07/25 22:54:33;;;;;;;16.63;15.73;;;;;;;18.89;100.00;101604.65;2006393;71;30872;-79
2022/07/25 23:00:19;;;;;;;17.33;16.63;;;;;;;18.85;100.00;101598.84;2018676;71;30881;-78
2022/07/25 23:06:04;;;;;;;17.73;16.97;;;;;;;18.80;100.00;101600.38;2003194;71;30876;-79
2022/07/25 23:11:48;;;;;;;17.07;16.27;;;;;;;18.88;100.00;101609.45;2016748;71;30987;-81
2022/07/25 23:17:33;;;;;;;16.30;15.70;;;;;;;18.90;100.00;101628.27;2017004;71;30902;-79
2022/07/25 23:23:20;;;;;;;13.90;13.30;;;;;;;18.80;100.00;101619.25;2011146;71;30988;-79
2022/07/25 23:29:05;;;;;;;13.77;13.17;;;;;;;18.86;100.00;101616.56;2004741;71;30881;-80
2022/07/25 23:34:49;;;;;;;12.67;12.17;;;;;;;18.67;100.00;101623.80;2005809;71;30865;-79
2022/07/25 23:40:34;;;;;;;12.10;11.50;;;;;;;18.52;100.00;101629.27;2009540;71;31363;-78
2022/07/25 23:46:19;;;;;;;12.80;12.30;;;;;;;18.34;100.00;101622.38;2015389;71;30916;-77
2022/07/25 23:52:05;;;;;;;13.03;12.43;;;;;;;18.27;100.00;101631.23;2003946;71;30932;-78
2022/07/25 23:57:52;;;;;;;13.00;12.30;;;;;;;18.18;100.00;101648.03;2006240;71;30828;-80
